Time;durP1;ratioP1;P1;durP2;ratioP2;P2;SDS_P1;SDS_P2;PMS_P1;PMS_P2;Temp;Humidity;BMP_temperature;BMP_pressure;BME280_temperature;BME280_humidity;BME280_pressure;Samples;Min_cycle;Max_cycle;Signal;HPM_P1;HPM_P2
2023/07/29 00:00:55;;;;;;;16.70;14.23;;;17.70;99.90;;;;;;4912550;29;20454;-34
2023/07/29 00:03:20;;;;;;;17.52;13.43;;;17.70;99.90;;;;;;4911304;29;20049;-34
2023/07/29 00:05:48;;;;;;;16.30;13.85;;;17.70;99.90;;;;;;4912998;29;20060;-34
2023/07/29 00:08:13;;;;;;;15.98;13.50;;;17.70;99.90;;;;;;4910985;29;20506;-34
2023/07/29 00:10:41;;;;;;;17.20;12.82;;;17.70;99.90;;;;;;4909604;29;20223;-34
2023/07/29 00:13:07;;;;;;;16.02;13.55;;;17.70;99.90;;;;;;4905896;29;20052;-34
2023/07/29 00:15:33;;;;;;;16.25;12.90;;;17.70;99.90;;;;;;4912409;29;20048;-34
2023/07/29 00:17:59;;;;;;;16.90;13.63;;;17.70;99.90;;;;;;4911288;29;20447;-34
2023/07/29 00:20:25;;;;;;;15.82;13.25;;;17.60;99.90;;;;;;4914249;29;20145;-35
2023/07/29 00:22:53;;;;;;;16.75;13.65;;;17.60;99.90;;;;;;4912162;29;20120;-34
2023/07/29 00:25:19;;;;;;;16.70;13.63;;;17.60;99.90;;;;;;4910422;29;20115;-34
2023/07/29 00:27:45;;;;;;;15.07;12.32;;;17.60;99.90;;;;;;4913893;29;20409;-34
2023/07/29 00:30:11;;;;;;;17.98;14.35;;;17.50;99.90;;;;;;4916251;29;20036;-34
2023/07/29 00:32:37;;;;;;;17.15;13.50;;;17.50;99.90;;;;;;4920367;29;20493;-34
2023/07/29 00:35:03;;;;;;;18.05;14.18;;;17.50;99.90;;;;;;4886140;29;20123;-33
2023/07/29 00:37:30;;;;;;;17.08;14.40;;;17.50;99.90;;;;;;4914183;29;20044;-34
2023/07/29 00:39:56;;;;;;;17.70;15.23;;;17.50;99.90;;;;;;4912164;29;20043;-34
2023/07/29 00:42:22;;;;;;;18.90;15.00;;;17.50;99.90;;;;;;4918241;29;20060;-34
2023/07/29 00:44:47;;;;;;;19.50;14.73;;;17.50;99.90;;;;;;4896701;29;20111;-34
2023/07/29 00:47:15;;;;;;;16.00;14.27;;;17.50;99.90;;;;;;4914139;29;20043;-34
2023/07/29 00:49:43;;;;;;;16.15;13.82;;;17.50;99.90;;;;;;4897224;29;20055;-34
2023/07/29 00:52:12;;;;;;;15.40;13.75;;;17.40;99.90;;;;;;4919548;29;20036;-34
2023/07/29 00:54:40;;;;;;;18.70;15.35;;;17.40;99.90;;;;;;4916278;29;20437;-34
2023/07/29 00:57:09;;;;;;;18.45;14.15;;;17.40;99.90;;;;;;4912397;29;20036;-34
2023/07/29 00:59:36;;;;;;;12.77;11.38;;;17.30;99.90;;;;;;4920508;29;20042;-33
2023/07/29 01:02:02;;;;;;;15.38;13.70;;;17.40;99.90;;;;;;4915549;29;20056;-34
2023/07/29 01:04:28;;;;;;;15.95;13.25;;;17.40;99.90;;;;;;4904752;29;20051;-34
2023/07/29 01:07:03;;;;;;;14.52;12.98;;;17.40;99.90;;;;;;4914906;29;20454;-34
2023/07/29 01:09:32;;;;;;;15.68;13.43;;;17.40;99.90;;;;;;4891172;29;20316;-34
2023/07/29 01:12:16;;;;;;;17.25;13.40;;;17.40;99.90;;;;;;4900750;29;20097;-33
2023/07/29 01:14:57;;;;;;;14.40;12.68;;;17.40;99.90;;;;;;4912087;29;20044;-34
2023/07/29 01:17:29;;;;;;;15.13;12.95;;;17.40;99.90;;;;;;4916722;29;20040;-34
2023/07/29 01:20:08;;;;;;;16.90;13.52;;;17.30;99.90;;;;;;4897343;29;20104;-34
2023/07/29 01:22:35;;;;;;;13.48;11.93;;;17.40;99.90;;;;;;4888286;29;20045;-34
2023/07/29 01:25:01;;;;;;;14.02;11.60;;;17.40;99.90;;;;;;4915308;29;20036;-34
2023/07/29 01:27:27;;;;;;;12.95;11.13;;;17.50;99.90;;;;;;4905905;29;20051;-34
2023/07/29 01:29:55;;;;;;;14.48;12.40;;;17.50;99.90;;;;;;4916054;29;20537;-34
2023/07/29 01:32:45;;;;;;;16.40;11.90;;;17.50;99.90;;;;;;4913619;29;20593;-34
2023/07/29 01:35:24;;;;;;;14.55;12.20;;;17.50;99.90;;;;;;4913600;29;20047;-34
2023/07/29 01:37:55;;;;;;;13.93;12.55;;;17.50;99.90;;;;;;4906752;29;20056;-34
2023/07/29 01:40:26;;;;;;;14.77;12.07;;;17.50;99.90;;;;;;4915102;29;20055;-34
2023/07/29 01:42:52;;;;;;;13.88;11.13;;;17.50;99.90;;;;;;4913841;29;20047;-34
2023/07/29 01:45:18;;;;;;;14.50;11.63;;;17.40;99.90;;;;;;4918178;29;20043;-34
2023/07/29 01:47:49;;;;;;;12.13;10.82;;;17.50;99.90;;;;;;4914833;29;20052;-34
2023/07/29 01:50:15;;;;;;;12.00;10.70;;;17.40;99.90;;;;;;4916950;29;20561;-34
2023/07/29 01:52:40;;;;;;;11.60;10.30;;;17.40;99.90;;;;;;4913939;29;20039;-34
2023/07/29 01:55:06;;;;;;;12.63;10.15;;;17.40;99.90;;;;;;4898546;29;20032;-34
2023/07/29 01:57:32;;;;;;;12.85;10.02;;;17.40;99.90;;;;;;4911702;29;20513;-34
2023/07/29 01:59:58;;;;;;;12.15;10.95;;;17.40;99.90;;;;;;4914297;29;20394;-34
2023/07/29 02:02:24;;;;;;;12.88;10.88;;;17.30;99.90;;;;;;4883694;29;20064;-34
2023/07/29 02:04:51;;;;;;;11.80;10.45;;;17.30;99.90;;;;;;4913899;29;20051;-34
2023/07/29 02:07:20;;;;;;;11.18;10.07;;;17.30;99.90;;;;;;4913419;29;20132;-33
2023/07/29 02:09:46;;;;;;;12.77;10.45;;;17.30;99.90;;;;;;4920308;29;20059;-34
2023/07/29 02:12:11;;;;;;;10.00;8.95;;;17.20;99.90;;;;;;4912982;29;20032;-34
2023/07/29 02:14:37;;;;;;;10.07;9.07;;;17.20;99.90;;;;;;4912278;29;20040;-34
2023/07/29 02:17:03;;;;;;;11.65;10.45;;;17.20;99.90;;;;;;4914843;29;20119;-34
2023/07/29 02:19:29;;;;;;;13.27;11.18;;;17.20;99.90;;;;;;4920616;29;20261;-33
2023/07/29 02:21:54;;;;;;;11.40;9.75;;;17.30;99.90;;;;;;4911670;29;20036;-34
2023/07/29 02:24:20;;;;;;;12.00;10.48;;;17.30;99.90;;;;;;4915912;29;20071;-34
2023/07/29 02:26:45;;;;;;;10.80;9.70;;;17.30;99.90;;;;;;4905345;29;20107;-33
2023/07/29 02:29:11;;;;;;;10.60;9.52;;;17.30;99.90;;;;;;4907493;29;20036;-33
2023/07/29 02:31:38;;;;;;;11.27;10.07;;;17.30;99.90;;;;;;4910487;29;20149;-34
2023/07/29 02:34:04;;;;;;;10.05;9.02;;;17.30;99.90;;;;;;4913117;29;20111;-33
2023/07/29 02:36:30;;;;;;;9.98;8.88;;;17.30;99.90;;;;;;4918531;29;20036;-34
2023/07/29 02:38:55;;;;;;;12.27;9.07;;;17.30;99.90;;;;;;4918804;29;20032;-35
2023/07/29 02:41:21;;;;;;;11.30;8.95;;;17.30;99.90;;;;;;4912755;29;20493;-34
2023/07/29 02:43:50;;;;;;;10.38;9.27;;;17.30;99.90;;;;;;4908977;29;20044;-34
2023/07/29 02:46:16;;;;;;;10.70;8.55;;;17.30;99.90;;;;;;4910024;29;20529;-34
2023/07/29 02:48:42;;;;;;;9.70;8.48;;;17.20;99.90;;;;;;4888847;29;20053;-34
2023/07/29 02:51:08;;;;;;;9.82;8.23;;;17.20;99.90;;;;;;4910777;29;20073;-34
2023/07/29 02:53:36;;;;;;;8.70;7.80;;;17.20;99.90;;;;;;4894068;29;20079;-34
2023/07/29 02:56:02;;;;;;;9.43;8.35;;;17.10;99.90;;;;;;4908061;29;20103;-34
2023/07/29 02:58:29;;;;;;;9.27;8.07;;;17.10;99.90;;;;;;4904721;29;20533;-34
2023/07/29 03:01:02;;;;;;;9.30;7.63;;;17.00;99.90;;;;;;4903321;29;20071;-34
2023/07/29 03:03:27;;;;;;;8.63;7.82;;;17.00;99.90;;;;;;4907182;29;20124;-34
2023/07/29 03:06:04;;;;;;;9.32;8.05;;;17.00;99.90;;;;;;4900950;29;20492;-34
2023/07/29 03:08:30;;;;;;;9.77;7.80;;;16.90;99.90;;;;;;4907932;29;20043;-34
2023/07/29 03:10:57;;;;;;;9.55;7.28;;;16.90;99.90;;;;;;4899102;29;20107;-34
2023/07/29 03:13:22;;;;;;;9.40;7.80;;;16.80;99.90;;;;;;4907758;29;20077;-34
2023/07/29 03:15:48;;;;;;;8.30;7.43;;;16.80;99.90;;;;;;4878863;29;20039;-34
2023/07/29 03:18:15;;;;;;;9.48;7.88;;;16.80;99.90;;;;;;4909988;29;20044;-34
2023/07/29 03:20:40;;;;;;;7.10;6.40;;;16.80;99.90;;;;;;4894672;29;20043;-34
2023/07/29 03:23:06;;;;;;;10.80;6.70;;;16.80;99.90;;;;;;4889138;29;20092;-34
2023/07/29 03:25:32;;;;;;;7.28;6.57;;;16.80;99.90;;;;;;4911531;29;20088;-34
2023/07/29 03:27:58;;;;;;;7.72;6.38;;;16.80;99.90;;;;;;4910311;29;20036;-35
2023/07/29 03:30:24;;;;;;;8.23;6.47;;;16.80;99.90;;;;;;4912121;29;20087;-35
2023/07/29 03:32:50;;;;;;;7.35;5.63;;;16.80;99.90;;;;;;4908940;29;20054;-35
2023/07/29 03:35:16;;;;;;;6.57;5.93;;;16.70;99.90;;;;;;4912259;29;20032;-35
2023/07/29 03:37:42;;;;;;;6.53;5.80;;;16.70;99.90;;;;;;4910653;29;20205;-35
2023/07/29 03:40:09;;;;;;;6.40;5.13;;;16.60;99.90;;;;;;4906440;29;20049;-35
2023/07/29 03:42:35;;;;;;;9.73;6.15;;;16.60;99.90;;;;;;4911069;29;20045;-35
2023/07/29 03:45:01;;;;;;;8.02;5.63;;;16.60;99.90;;;;;;4917850;29;20040;-35
2023/07/29 03:47:27;;;;;;;7.00;5.80;;;16.60;99.90;;;;;;4914723;29;20040;-35
2023/07/29 03:49:53;;;;;;;6.47;5.55;;;16.60;99.90;;;;;;4896831;29;20086;-35
2023/07/29 03:52:18;;;;;;;6.38;5.40;;;16.60;99.90;;;;;;4903205;29;20067;-35
2023/07/29 03:54:44;;;;;;;7.15;5.05;;;16.60;99.90;;;;;;4902062;29;20158;-35
2023/07/29 03:57:10;;;;;;;6.70;4.95;;;16.60;99.90;;;;;;4909820;29;20402;-35
2023/07/29 03:59:36;;;;;;;5.93;4.72;;;16.60;99.90;;;;;;4911276;29;20044;-35
2023/07/29 04:02:02;;;;;;;4.68;4.28;;;16.60;99.90;;;;;;4921173;29;20058;-35
2023/07/29 04:04:28;;;;;;;10.25;5.00;;;16.60;99.90;;;;;;4917487;29;20498;-35
2023/07/29 04:06:53;;;;;;;5.97;4.57;;;16.60;99.90;;;;;;4914953;29;20056;-35
2023/07/29 04:09:19;;;;;;;5.05;4.50;;;16.60;99.90;;;;;;4914358;29;20113;-35
2023/07/29 04:11:45;;;;;;;4.90;4.45;;;16.60;99.90;;;;;;4914333;29;20051;-35
2023/07/29 04:14:11;;;;;;;4.57;4.07;;;16.60;99.90;;;;;;4889634;29;20079;-35
2023/07/29 04:16:36;;;;;;;7.97;4.28;;;16.60;99.90;;;;;;4916155;29;20040;-35
2023/07/29 04:19:02;;;;;;;6.28;4.53;;;16.60;99.90;;;;;;4912851;29;20151;-35
2023/07/29 04:21:27;;;;;;;5.72;4.72;;;16.60;99.90;;;;;;4913794;29;20040;-35
2023/07/29 04:23:53;;;;;;;5.53;4.60;;;16.60;99.90;;;;;;4918531;29;20494;-35
2023/07/29 04:26:19;;;;;;;5.53;4.68;;;16.60;99.90;;;;;;4915327;29;20040;-35
2023/07/29 04:28:46;;;;;;;5.20;4.70;;;16.60;99.90;;;;;;4914518;29;20401;-35
2023/07/29 04:31:11;;;;;;;6.32;4.63;;;16.70;99.90;;;;;;4899713;29;20235;-35
2023/07/29 04:33:37;;;;;;;4.75;4.18;;;16.70;99.90;;;;;;4907287;29;20072;-35
2023/07/29 04:36:03;;;;;;;6.72;3.88;;;16.70;99.90;;;;;;4910705;29;20135;-35
2023/07/29 04:38:32;;;;;;;7.22;4.30;;;16.70;99.90;;;;;;4913404;29;20040;-35
2023/07/29 04:41:01;;;;;;;4.82;3.17;;;16.80;99.90;;;;;;4905457;29;20091;-35
2023/07/29 04:43:28;;;;;;;5.95;3.50;;;16.80;99.90;;;;;;4913866;29;20062;-35
2023/07/29 04:45:54;;;;;;;3.58;3.25;;;16.80;99.90;;;;;;4909709;29;20048;-35
2023/07/29 04:48:20;;;;;;;5.78;3.70;;;16.80;99.90;;;;;;4910618;29;20084;-35
2023/07/29 04:50:46;;;;;;;5.53;3.38;;;16.80;99.90;;;;;;4908182;29;20101;-35
2023/07/29 04:53:11;;;;;;;4.75;3.20;;;16.80;99.90;;;;;;4911431;29;20044;-36
2023/07/29 04:55:37;;;;;;;5.88;3.70;;;16.90;99.90;;;;;;4912274;29;20486;-35
2023/07/29 04:58:03;;;;;;;3.83;3.00;;;16.90;99.90;;;;;;4909449;29;20037;-35
2023/07/29 05:00:28;;;;;;;5.10;3.33;;;16.90;99.90;;;;;;4913115;29;20520;-35
2023/07/29 05:02:54;;;;;;;4.75;3.45;;;16.90;99.90;;;;;;4913117;29;20040;-35
2023/07/29 05:05:20;;;;;;;4.03;3.30;;;16.90;99.90;;;;;;4915437;29;20047;-35
2023/07/29 05:07:45;;;;;;;4.60;3.38;;;16.90;99.90;;;;;;4905589;29;20085;-35
2023/07/29 05:10:11;;;;;;;3.72;3.30;;;17.00;99.90;;;;;;4906144;29;20493;-35
2023/07/29 05:12:37;;;;;;;4.40;3.60;;;17.00;99.90;;;;;;4905497;29;20545;-35
2023/07/29 05:15:03;;;;;;;5.90;3.47;;;17.00;99.90;;;;;;4908440;29;20048;-36
2023/07/29 05:17:31;;;;;;;3.55;3.10;;;17.10;99.90;;;;;;4859854;29;20051;-35
2023/07/29 05:19:56;;;;;;;5.30;3.78;;;17.10;99.90;;;;;;4912711;29;20036;-35
2023/07/29 05:22:22;;;;;;;5.13;3.53;;;17.20;99.90;;;;;;4910065;29;20118;-35
2023/07/29 05:24:47;;;;;;;4.85;3.33;;;17.20;99.90;;;;;;4919154;29;20050;-35
2023/07/29 05:27:13;;;;;;;6.72;4.20;;;17.20;99.90;;;;;;4895491;29;20082;-35
2023/07/29 05:29:39;;;;;;;6.93;3.92;;;17.20;99.90;;;;;;4912666;29;20401;-35
2023/07/29 05:32:05;;;;;;;7.25;3.70;;;17.30;99.90;;;;;;4913011;29;20051;-35
2023/07/29 05:34:30;;;;;;;6.80;3.90;;;17.40;99.90;;;;;;4912919;29;20051;-35
2023/07/29 05:36:56;;;;;;;4.35;3.67;;;17.40;99.90;;;;;;4914212;29;20040;-35
2023/07/29 05:39:22;;;;;;;8.38;4.22;;;17.50;99.90;;;;;;4894219;29;20036;-35
2023/07/29 05:41:47;;;;;;;6.72;4.40;;;17.50;99.90;;;;;;4903211;29;20383;-35
2023/07/29 05:44:13;;;;;;;5.22;4.28;;;17.50;99.90;;;;;;4909904;29;20203;-35
2023/07/29 05:46:39;;;;;;;5.15;4.13;;;17.50;99.90;;;;;;4911150;29;20541;-35
2023/07/29 05:49:04;;;;;;;6.05;4.82;;;17.50;99.90;;;;;;4914822;29;20036;-35
2023/07/29 05:51:31;;;;;;;6.35;4.80;;;17.50;99.90;;;;;;4902967;29;20055;-35
2023/07/29 05:53:57;;;;;;;8.13;4.90;;;17.60;99.90;;;;;;4913604;29;20051;-35
2023/07/29 05:56:23;;;;;;;6.20;5.05;;;17.60;99.90;;;;;;4915038;29;20036;-35
2023/07/29 05:58:49;;;;;;;8.65;5.20;;;17.60;99.90;;;;;;4906563;29;20062;-35
2023/07/29 06:01:15;;;;;;;7.55;5.40;;;17.70;99.90;;;;;;4890827;29;20123;-35
2023/07/29 06:03:42;;;;;;;9.13;5.45;;;17.70;99.90;;;;;;4893568;29;20123;-35
2023/07/29 06:06:09;;;;;;;7.63;6.13;;;17.70;99.90;;;;;;4893453;29;20048;-35
2023/07/29 06:08:34;;;;;;;9.02;6.40;;;17.80;99.90;;;;;;4887165;29;20391;-35
2023/07/29 06:11:00;;;;;;;8.23;5.85;;;17.80;99.90;;;;;;4888762;29;20100;-35
2023/07/29 06:13:26;;;;;;;10.32;6.15;;;17.90;99.90;;;;;;4909199;29;20047;-35
2023/07/29 06:15:52;;;;;;;8.50;6.25;;;17.90;99.90;;;;;;4904384;29;20048;-35
2023/07/29 06:18:17;;;;;;;7.47;5.95;;;18.00;99.90;;;;;;4901947;29;20549;-35
2023/07/29 06:20:46;;;;;;;10.02;6.35;;;18.00;99.90;;;;;;4903430;29;20824;-35
2023/07/29 06:23:12;;;;;;;8.50;6.38;;;18.10;99.90;;;;;;4900281;29;20135;-35
2023/07/29 06:25:38;;;;;;;10.10;6.32;;;18.20;99.90;;;;;;4901968;29;20502;-35
2023/07/29 06:28:04;;;;;;;9.60;6.65;;;18.20;99.90;;;;;;4905485;29;20051;-35
2023/07/29 06:30:30;;;;;;;9.48;6.10;;;18.20;99.90;;;;;;4905335;29;20048;-36
2023/07/29 06:32:56;;;;;;;8.98;5.75;;;18.30;99.90;;;;;;4905174;29;20549;-35
2023/07/29 06:35:22;;;;;;;7.88;5.72;;;18.40;99.90;;;;;;4904752;29;20558;-35
2023/07/29 06:37:48;;;;;;;9.13;6.45;;;18.40;99.90;;;;;;4906203;29;20055;-35
2023/07/29 06:40:14;;;;;;;10.45;6.38;;;18.40;99.90;;;;;;4904385;29;20128;-36
2023/07/29 06:42:39;;;;;;;8.27;6.32;;;18.50;99.90;;;;;;4903520;29;20052;-35
2023/07/29 06:45:06;;;;;;;9.70;6.72;;;18.50;99.90;;;;;;4889409;29;20046;-35
2023/07/29 06:47:32;;;;;;;8.75;6.30;;;18.60;99.90;;;;;;4905085;29;20517;-35
2023/07/29 06:49:58;;;;;;;11.15;6.50;;;18.60;99.90;;;;;;4903377;29;20044;-35
2023/07/29 06:52:23;;;;;;;10.13;5.80;;;18.80;99.90;;;;;;4906333;29;20048;-35
2023/07/29 06:54:49;;;;;;;8.25;6.15;;;18.90;99.90;;;;;;4901267;29;20052;-35
2023/07/29 06:57:15;;;;;;;8.82;6.40;;;19.00;99.90;;;;;;4904608;29;20036;-35
2023/07/29 06:59:40;;;;;;;9.40;6.20;;;19.10;99.90;;;;;;4904372;29;20036;-35
2023/07/29 07:02:07;;;;;;;9.80;6.50;;;19.10;99.90;;;;;;4887680;29;20502;-35
2023/07/29 07:04:33;;;;;;;8.75;6.85;;;19.10;99.90;;;;;;4905195;29;20157;-36
2023/07/29 07:06:58;;;;;;;8.88;6.32;;;19.20;99.90;;;;;;4900639;29;20123;-35
2023/07/29 07:09:24;;;;;;;9.07;6.18;;;19.20;99.90;;;;;;4902811;29;20036;-35
2023/07/29 07:11:50;;;;;;;10.98;6.10;;;19.20;99.90;;;;;;4903463;29;20055;-35
2023/07/29 07:14:16;;;;;;;9.02;6.82;;;19.20;99.90;;;;;;4902438;29;20040;-35
2023/07/29 07:16:41;;;;;;;9.90;6.78;;;19.10;99.90;;;;;;4902328;29;20044;-36
2023/07/29 07:19:07;;;;;;;10.68;7.60;;;19.10;99.90;;;;;;4912345;29;20063;-35
2023/07/29 07:21:33;;;;;;;10.80;6.93;;;19.10;99.90;;;;;;4912162;29;20040;-35
2023/07/29 07:23:58;;;;;;;11.00;6.80;;;19.20;99.90;;;;;;4903990;29;20040;-35
2023/07/29 07:26:24;;;;;;;7.80;6.90;;;19.20;99.90;;;;;;4910690;29;20075;-35
2023/07/29 07:28:51;;;;;;;9.07;6.53;;;19.40;99.90;;;;;;4907186;29;20048;-36
2023/07/29 07:31:17;;;;;;;8.48;5.75;;;19.50;99.90;;;;;;4909352;29;20442;-36
2023/07/29 07:33:43;;;;;;;9.13;6.30;;;19.70;99.90;;;;;;4909204;29;20123;-36
2023/07/29 07:36:08;;;;;;;6.65;5.55;;;19.80;99.90;;;;;;4902971;29;20486;-35
2023/07/29 07:38:34;;;;;;;6.97;5.20;;;19.90;99.90;;;;;;4904259;29;20064;-35
2023/07/29 07:41:00;;;;;;;6.70;5.78;;;20.00;99.90;;;;;;4905991;29;20478;-35
2023/07/29 07:43:26;;;;;;;8.57;5.60;;;20.30;99.90;;;;;;4892217;29;20559;-35
2023/07/29 07:45:57;;;;;;;13.00;5.85;;;20.60;99.90;;;;;;4908230;29;20124;-36
2023/07/29 07:48:23;;;;;;;7.53;5.00;;;20.80;99.90;;;;;;4890619;29;20536;-36
2023/07/29 07:50:48;;;;;;;5.32;4.78;;;21.00;99.90;;;;;;4910553;29;20127;-36
2023/07/29 07:53:14;;;;;;;6.00;4.70;;;21.20;99.90;;;;;;4908861;29;20095;-36
2023/07/29 07:55:40;;;;;;;6.35;4.72;;;21.20;99.90;;;;;;4907093;29;20040;-36
2023/07/29 07:58:09;;;;;;;7.43;3.83;;;21.10;99.90;;;;;;4906314;29;20126;-36
2023/07/29 08:00:34;;;;;;;8.95;4.53;;;21.10;99.90;;;;;;4914266;29;20032;-36
2023/07/29 08:03:00;;;;;;;5.32;4.18;;;21.10;99.90;;;;;;4911562;29;20390;-36
2023/07/29 08:05:26;;;;;;;5.50;3.83;;;21.30;99.90;;;;;;4909744;29;20119;-36
2023/07/29 08:07:51;;;;;;;6.25;4.65;;;21.30;99.90;;;;;;4905726;29;20408;-35
2023/07/29 08:10:17;;;;;;;6.00;3.92;;;21.00;99.90;;;;;;4903154;29;20036;-36
2023/07/29 08:12:43;;;;;;;6.35;3.72;;;20.90;99.90;;;;;;4901092;29;20129;-35
2023/07/29 08:15:09;;;;;;;6.03;3.90;;;20.90;99.90;;;;;;4896792;29;20080;-36
2023/07/29 08:17:34;;;;;;;7.63;3.88;;;20.80;99.90;;;;;;4886485;29;20450;-36
2023/07/29 08:20:00;;;;;;;5.63;3.40;;;20.80;99.90;;;;;;4905475;29;20040;-36
2023/07/29 08:22:26;;;;;;;4.85;3.28;;;21.20;99.90;;;;;;4906931;29;20040;-35
2023/07/29 08:24:52;;;;;;;4.35;3.70;;;21.30;99.90;;;;;;4906645;29;20051;-36
2023/07/29 08:27:18;;;;;;;6.25;4.30;;;21.20;99.90;;;;;;4908130;29;20071;-36
2023/07/29 08:29:43;;;;;;;4.53;4.13;;;21.00;99.90;;;;;;4902009;29;20086;-36
2023/07/29 08:32:09;;;;;;;4.05;3.65;;;20.90;99.90;;;;;;4909043;29;20122;-36
2023/07/29 08:34:35;;;;;;;4.93;3.90;;;20.90;99.90;;;;;;4899629;29;20040;-36
2023/07/29 08:37:01;;;;;;;5.18;3.72;;;21.00;99.90;;;;;;4901968;29;20103;-35
2023/07/29 08:39:28;;;;;;;4.47;3.75;;;21.10;99.90;;;;;;4903069;29;20040;-36
2023/07/29 08:42:12;;;;;;;3.78;3.35;;;21.20;99.90;;;;;;4905718;29;20044;-36
2023/07/29 08:44:43;;;;;;;4.72;3.63;;;21.30;99.90;;;;;;4879325;29;20044;-35
2023/07/29 08:47:09;;;;;;;6.55;3.90;;;21.30;99.90;;;;;;4916819;29;20046;-35
2023/07/29 08:49:36;;;;;;;6.18;4.05;;;21.40;99.90;;;;;;4909209;29;20052;-35
2023/07/29 08:52:03;;;;;;;4.07;3.50;;;21.60;99.90;;;;;;4906141;29;20052;-35
2023/07/29 08:54:29;;;;;;;4.35;3.13;;;21.90;99.90;;;;;;4896892;29;20040;-36
2023/07/29 08:56:55;;;;;;;5.75;3.67;;;22.10;99.90;;;;;;4918701;29;20111;-35
2023/07/29 08:59:21;;;;;;;4.25;2.92;;;22.40;99.90;;;;;;4911807;29;20036;-35
2023/07/29 09:01:48;;;;;;;3.53;2.92;;;22.40;99.90;;;;;;4906060;29;20059;-35
2023/07/29 09:04:15;;;;;;;4.28;2.90;;;22.30;99.90;;;;;;4912798;29;20184;-36
2023/07/29 09:06:44;;;;;;;3.53;3.00;;;22.40;99.90;;;;;;4911410;29;20554;-35
2023/07/29 09:09:09;;;;;;;3.70;2.72;;;22.40;99.90;;;;;;4908315;29;20048;-35
2023/07/29 09:11:35;;;;;;;4.18;2.88;;;22.40;99.90;;;;;;4907982;29;20040;-35
2023/07/29 09:14:01;;;;;;;4.45;2.75;;;22.50;99.90;;;;;;4912566;29;20482;-36
2023/07/29 09:16:27;;;;;;;7.57;2.63;;;22.50;99.90;;;;;;4912833;29;20051;-36
2023/07/29 09:18:53;;;;;;;3.80;2.80;;;22.60;99.90;;;;;;4913064;29;20043;-35
2023/07/29 09:21:24;;;;;;;3.53;2.40;;;22.60;99.90;;;;;;4913185;29;20502;-36
2023/07/29 09:23:50;;;;;;;3.10;2.42;;;22.60;99.90;;;;;;4913076;29;20051;-36
2023/07/29 09:26:27;;;;;;;5.05;2.60;;;22.60;99.90;;;;;;4912363;29;20056;-35
2023/07/29 09:28:55;;;;;;;3.92;2.78;;;22.80;99.90;;;;;;4912919;29;20126;-36
2023/07/29 09:31:22;;;;;;;2.65;2.15;;;23.00;99.90;;;;;;4902189;29;20108;-35
2023/07/29 09:33:48;;;;;;;3.35;2.30;;;23.50;99.90;;;;;;4902206;29;20214;-35
2023/07/29 09:36:14;;;;;;;3.75;1.50;;;23.80;99.90;;;;;;4911932;29;20044;-35
2023/07/29 09:38:40;;;;;;;2.72;1.90;;;24.00;99.90;;;;;;4918001;29;20127;-35
2023/07/29 09:41:06;;;;;;;2.75;1.88;;;23.90;99.90;;;;;;4890070;29;20037;-35
2023/07/29 09:43:34;;;;;;;3.38;1.90;;;23.80;99.90;;;;;;4912462;29;20040;-35
2023/07/29 09:46:04;;;;;;;3.60;2.10;;;23.70;99.90;;;;;;4912303;29;20537;-35
2023/07/29 09:48:37;;;;;;;3.10;1.65;;;23.80;99.90;;;;;;4911529;29;20574;-35
2023/07/29 09:51:13;;;;;;;3.05;1.83;;;23.90;99.90;;;;;;4918714;29;20040;-34
2023/07/29 09:53:51;;;;;;;2.85;2.08;;;23.80;99.90;;;;;;4918833;29;20103;-34
2023/07/29 09:56:17;;;;;;;3.70;1.90;;;24.10;99.90;;;;;;4930140;29;20099;-34
2023/07/29 09:58:48;;;;;;;4.13;2.00;;;24.00;99.90;;;;;;4919375;29;20035;-34
2023/07/29 10:01:14;;;;;;;3.45;2.22;;;23.90;99.90;;;;;;4929691;29;20064;-34
2023/07/29 10:03:40;;;;;;;2.78;1.90;;;23.60;99.90;;;;;;4930002;29;20036;-34
2023/07/29 10:06:07;;;;;;;4.45;2.13;;;23.30;99.90;;;;;;4914472;29;20048;-34
2023/07/29 10:08:38;;;;;;;3.08;1.70;;;23.40;99.90;;;;;;4914066;29;20112;-34
2023/07/29 10:11:08;;;;;;;2.00;1.52;;;23.50;99.90;;;;;;4914195;29;20096;-34
2023/07/29 10:13:36;;;;;;;3.95;1.80;;;23.90;99.90;;;;;;4911026;29;20052;-34
2023/07/29 10:16:03;;;;;;;2.72;1.88;;;24.70;99.90;;;;;;4885473;29;20065;-34
2023/07/29 10:18:30;;;;;;;2.08;1.92;;;25.00;99.90;;;;;;4914745;29;20474;-34
2023/07/29 10:20:58;;;;;;;4.35;2.10;;;24.70;99.90;;;;;;4925157;29;20153;-34
2023/07/29 10:23:26;;;;;;;2.28;1.67;;;24.60;99.90;;;;;;4910854;29;20047;-34
2023/07/29 10:26:12;;;;;;;2.78;2.13;;;24.60;99.90;;;;;;4911225;29;20450;-37
2023/07/29 10:28:44;;;;;;;2.53;2.20;;;24.50;99.90;;;;;;4911987;29;20565;-34
2023/07/29 10:31:10;;;;;;;6.28;2.20;;;24.40;99.90;;;;;;4879072;29;20277;-39
2023/07/29 10:33:37;;;;;;;2.50;2.30;;;24.50;99.90;;;;;;4907005;29;20052;-39
2023/07/29 10:36:03;;;;;;;3.05;2.40;;;25.00;99.90;;;;;;4906356;29;20509;-39
2023/07/29 10:38:29;;;;;;;3.67;2.85;;;25.20;99.90;;;;;;4899410;29;20051;-36
2023/07/29 10:40:57;;;;;;;3.08;2.55;;;25.40;99.90;;;;;;4907167;29;20036;-37
2023/07/29 10:43:37;;;;;;;3.83;2.53;;;25.40;99.90;;;;;;4905958;29;20577;-38
2023/07/29 10:46:20;;;;;;;4.28;3.08;;;25.20;99.90;;;;;;4903081;29;20494;-36
2023/07/29 10:48:56;;;;;;;3.38;2.85;;;24.80;99.90;;;;;;4897978;29;20040;-36
2023/07/29 10:51:26;;;;;;;3.08;2.78;;;24.60;99.90;;;;;;4889377;29;20039;-36
2023/07/29 10:53:58;;;;;;;4.35;2.80;;;24.40;99.90;;;;;;4904674;29;20044;-36
2023/07/29 10:56:32;;;;;;;4.28;3.55;;;24.40;99.90;;;;;;4908387;29;20471;-36
2023/07/29 10:59:16;;;;;;;4.55;3.30;;;24.20;99.90;;;;;;4907207;29;20033;-36
2023/07/29 11:01:49;;;;;;;6.18;3.85;;;24.20;99.90;;;;;;4908626;29;20051;-36
2023/07/29 11:04:23;;;;;;;4.53;4.22;;;23.80;99.90;;;;;;4905368;29;20036;-37
2023/07/29 11:07:07;;;;;;;4.70;4.30;;;23.60;99.90;;;;;;4908933;29;20048;-39
2023/07/29 11:09:39;;;;;;;4.30;3.90;;;23.50;99.90;;;;;;4908254;29;20048;-36
2023/07/29 11:12:39;;;;;;;4.75;4.22;;;23.90;99.90;;;;;;4902481;29;20417;-38
2023/07/29 11:15:15;;;;;;;5.78;4.30;;;24.60;99.90;;;;;;4898793;29;20052;-36
2023/07/29 11:17:42;;;;;;;4.07;3.35;;;24.80;99.90;;;;;;4904072;29;20044;-38
2023/07/29 11:20:09;;;;;;;4.80;3.65;;;24.80;99.90;;;;;;4909135;29;20036;-37
2023/07/29 11:22:36;;;;;;;4.03;3.40;;;24.70;99.90;;;;;;4891676;29;20048;-36
2023/07/29 11:25:02;;;;;;;4.15;3.40;;;24.70;99.90;;;;;;4912072;29;20043;-39
2023/07/29 11:27:28;;;;;;;3.95;3.20;;;24.30;99.90;;;;;;4918844;29;20044;-37
2023/07/29 11:29:58;;;;;;;3.38;3.08;;;24.30;99.90;;;;;;4900102;29;20127;-39
2023/07/29 11:32:25;;;;;;;4.18;3.17;;;24.20;99.90;;;;;;4908347;29;20055;-37
2023/07/29 11:34:50;;;;;;;4.50;3.00;;;24.40;99.90;;;;;;4910184;29;20036;-36
2023/07/29 11:37:16;;;;;;;3.92;2.72;;;24.90;99.90;;;;;;4911916;29;20039;-37
2023/07/29 11:39:44;;;;;;;3.20;2.90;;;25.30;99.90;;;;;;4892294;29;20045;-37
2023/07/29 11:42:13;;;;;;;4.00;3.13;;;25.50;99.90;;;;;;4908290;29;20048;-37
2023/07/29 11:44:39;;;;;;;4.07;2.75;;;25.70;99.90;;;;;;4895867;29;20127;-37
2023/07/29 11:47:08;;;;;;;5.22;3.10;;;25.60;99.90;;;;;;4894841;29;20123;-36
2023/07/29 11:49:35;;;;;;;4.13;2.80;;;25.70;99.90;;;;;;4906524;29;20059;-38
2023/07/29 11:52:02;;;;;;;2.70;2.50;;;25.40;99.90;;;;;;4910504;29;20532;-38
2023/07/29 11:54:28;;;;;;;3.78;2.40;;;25.30;99.90;;;;;;4911183;29;20059;-37
2023/07/29 11:56:55;;;;;;;3.00;2.55;;;25.40;99.90;;;;;;4910143;29;20355;-38
2023/07/29 11:59:20;;;;;;;4.05;2.20;;;25.60;99.90;;;;;;4910833;29;20039;-40
2023/07/29 12:01:46;;;;;;;3.95;2.20;;;25.60;99.90;;;;;;4875073;29;20771;-37
2023/07/29 12:04:12;;;;;;;4.07;2.33;;;25.90;99.90;;;;;;4878783;29;20530;-37
2023/07/29 12:06:39;;;;;;;2.97;2.20;;;26.30;99.90;;;;;;4901830;29;20060;-37
2023/07/29 12:09:05;;;;;;;3.60;2.55;;;26.50;99.90;;;;;;4910950;29;20043;-38
2023/07/29 12:11:32;;;;;;;3.50;2.35;;;26.30;99.90;;;;;;4894852;29;20063;-38
2023/07/29 12:14:00;;;;;;;5.47;2.00;;;26.10;99.90;;;;;;4897049;29;20398;-37
2023/07/29 12:16:25;;;;;;;3.78;2.20;;;26.20;99.90;;;;;;4906470;29;20115;-37
2023/07/29 12:18:51;;;;;;;2.95;2.10;;;25.90;99.90;;;;;;4910799;29;20119;-38
2023/07/29 12:21:19;;;;;;;4.57;2.47;;;25.80;99.90;;;;;;4911204;29;20450;-38
2023/07/29 12:23:44;;;;;;;3.45;1.98;;;25.40;99.90;;;;;;4880266;29;20108;-37
2023/07/29 12:26:10;;;;;;;4.00;2.30;;;25.70;99.90;;;;;;4915060;29;20036;-37
2023/07/29 12:28:36;;;;;;;3.60;2.30;;;26.20;99.90;;;;;;4908682;29;20092;-37
2023/07/29 12:31:01;;;;;;;3.30;2.10;;;26.50;99.90;;;;;;4914960;29;20036;-37
2023/07/29 12:33:33;;;;;;;2.97;1.80;;;26.90;98.50;;;;;;4911406;29;20094;-39
2023/07/29 12:35:59;;;;;;;3.35;1.90;;;27.20;97.10;;;;;;4896202;29;20517;-37
2023/07/29 12:38:29;;;;;;;3.22;1.83;;;27.20;96.20;;;;;;4898296;29;20398;-37
2023/07/29 12:40:56;;;;;;;3.90;2.33;;;27.40;95.60;;;;;;4874865;29;20051;-35
2023/07/29 12:43:22;;;;;;;2.95;2.08;;;27.10;95.20;;;;;;4936558;29;20050;-35